Terminal Aerodrome Forecast
Issued by NWS

Home | Current Version | Previous Version | Text Only | Print | Product List | Glossary On
Versions: 1 2 3 4 5 6 7 8 9 10 11 12 13 14 15 16 17 18 19 20
000
FTUS43 KDLH 200400 AAA
TAFHIB
TAF AMD
KHIB 200414Z 2004/2024 15006KT 5SM BR OVC004
      TEMPO 2005/2008 2SM -FZDZSN BR OVC004
     FM200800 15004KT 3SM -FZDZSN BR OVC004
      TEMPO 2010/2014 1SM -SN BR OVC003
     FM201600 16007KT 3SM -FZDZSN BR OVC007
     FM202100 16007KT 5SM -FZDZSN BR SCT009 OVC012=

USA.gov is the U.S. government's official web portal to all federal, state and local government web resources and services.